Manheim, West Virginia
Current Conditions -  °F | °C
As of 9:51 AM on Monday 22 Dec 2014 (Local Time) from KEKN Reporting Station
Haze Haze  
Wind Chill: 30°   Ceiling: 5000
Heat Index: 30°   Visibility: 5mi
Dew Point: 29°   Wind: 0mph
Humidity: 96%   Direction: NA
Pressure: 30.12"   Gusts: NA
Location:  39.2234°N, 79.6204°W
Report Text: KEKN 221451Z AUTO 00000KT 5SM BR OVC050 M01/M02 A3012 RMK AO2 SLP228 T10111017 50000 TSNO
Loading
Personal Weather Stations






























Interactive Weather Map New forecast layout! Learn more

10-Day Weather Forecast

Advertisements
Track Severe Weather on mobile